createdAt,value
2022-10-01T00:00:31.209Z,12.40
2022-10-01T00:03:00.933Z,12.40
2022-10-01T00:05:30.424Z,12.40
2022-10-01T00:07:59.867Z,12.10
2022-10-01T00:10:30.939Z,12.20
2022-10-01T00:13:00.448Z,12.20
2022-10-01T00:15:29.955Z,12.20
2022-10-01T00:18:00.030Z,12.20
2022-10-01T00:20:29.517Z,12.10
2022-10-01T00:22:58.945Z,12.20
2022-10-01T00:25:28.429Z,12.10
2022-10-01T00:27:57.964Z,12.10
2022-10-01T00:30:27.493Z,12.10
2022-10-01T00:32:57.902Z,12.10
2022-10-01T00:35:27.344Z,12.20
2022-10-01T00:37:56.846Z,12.20
2022-10-01T00:40:26.284Z,12.10
2022-10-01T00:42:55.775Z,12.00
2022-10-01T00:45:25.293Z,11.70
2022-10-01T00:48:01.162Z,11.70
2022-10-01T00:50:35.056Z,11.90
2022-10-01T00:53:07.633Z,11.90
2022-10-01T00:55:46.046Z,12.00
2022-10-01T00:58:16.631Z,12.00
2022-10-01T01:00:46.784Z,12.00
2022-10-01T01:03:17.091Z,12.00
2022-10-01T01:05:48.464Z,12.10
2022-10-01T01:08:19.379Z,12.10
2022-10-01T01:10:57.645Z,12.00
2022-10-01T01:13:45.111Z,12.00
2022-10-01T01:16:19.329Z,11.80
2022-10-01T01:19:00.616Z,11.60
2022-10-01T01:21:39.424Z,11.10
2022-10-01T01:24:26.997Z,10.90
2022-10-01T01:27:15.611Z,10.90
2022-10-01T01:30:01.855Z,11.00
2022-10-01T01:32:40.311Z,11.10
2022-10-01T01:35:12.184Z,11.30
2022-10-01T01:37:45.346Z,11.50
2022-10-01T01:40:17.244Z,11.50
2022-10-01T01:42:49.494Z,11.60
2022-10-01T01:45:22.024Z,11.60
2022-10-01T01:47:55.355Z,11.70
2022-10-01T01:50:28.472Z,11.60
2022-10-01T01:52:59.824Z,11.70
2022-10-01T01:55:32.102Z,11.80
2022-10-01T01:58:03.861Z,11.70
2022-10-01T02:00:33.317Z,11.70
2022-10-01T02:03:03.308Z,11.60
2022-10-01T02:05:36.364Z,11.40
2022-10-01T02:08:12.758Z,11.40
2022-10-01T02:11:08.613Z,11.20
2022-10-01T02:14:01.157Z,10.90
2022-10-01T02:16:51.749Z,10.90
2022-10-01T02:19:27.048Z,10.80
2022-10-01T02:22:01.819Z,10.90
2022-10-01T02:25:46.995Z,11.10
2022-10-01T02:28:19.559Z,11.20
2022-10-01T02:30:49.368Z,11.20
2022-10-01T02:33:21.783Z,11.00
2022-10-01T02:35:54.218Z,11.10
2022-10-01T02:38:26.702Z,11.30
2022-10-01T02:41:00.848Z,11.40
2022-10-01T02:43:43.215Z,11.30
2022-10-01T02:46:21.900Z,11.10
2022-10-01T02:48:52.831Z,11.10
2022-10-01T02:51:34.482Z,11.20
2022-10-01T02:54:07.654Z,11.40
2022-10-01T02:56:56.420Z,11.50
2022-10-01T02:59:26.010Z,11.50
2022-10-01T03:01:55.832Z,11.50
2022-10-01T03:04:26.115Z,11.60
2022-10-01T03:06:55.615Z,11.60
2022-10-01T03:09:25.105Z,11.70
2022-10-01T03:11:55.661Z,11.60
2022-10-01T03:14:25.976Z,11.70
2022-10-01T03:16:55.697Z,11.70
2022-10-01T03:19:25.261Z,11.70
2022-10-01T03:21:56.569Z,11.70
2022-10-01T03:24:26.093Z,11.70
2022-10-01T03:26:57.696Z,11.70
2022-10-01T03:29:28.516Z,11.60
2022-10-01T03:31:57.944Z,11.50
2022-10-01T03:34:27.513Z,11.60
2022-10-01T03:36:57.079Z,11.60
2022-10-01T03:39:26.498Z,11.70
2022-10-01T03:41:56.137Z,11.70
2022-10-01T03:44:28.446Z,11.60
2022-10-01T03:46:57.888Z,11.60
2022-10-01T03:49:28.443Z,11.60
2022-10-01T03:51:57.878Z,11.60
2022-10-01T03:54:27.313Z,11.60
2022-10-01T03:56:56.758Z,11.60
2022-10-01T03:59:28.318Z,11.50
2022-10-01T04:01:58.446Z,11.40
2022-10-01T04:04:29.549Z,11.50
2022-10-01T04:06:59.050Z,11.60
2022-10-01T04:09:28.474Z,11.50
2022-10-01T04:11:57.976Z,11.50
2022-10-01T04:14:27.533Z,11.50
2022-10-01T04:16:56.961Z,11.50
2022-10-01T04:19:26.382Z,11.50
2022-10-01T04:21:55.840Z,11.50
2022-10-01T04:24:25.266Z,11.50
2022-10-01T04:26:54.707Z,11.60
2022-10-01T04:29:24.303Z,11.60
2022-10-01T04:31:54.443Z,11.60
2022-10-01T04:34:25.949Z,11.60
2022-10-01T04:36:55.363Z,11.60
2022-10-01T04:39:25.984Z,11.60
2022-10-01T04:41:55.487Z,11.70
2022-10-01T04:44:25.064Z,11.70
2022-10-01T04:46:55.300Z,11.40
2022-10-01T04:49:24.828Z,11.30
2022-10-01T04:51:54.255Z,11.20
2022-10-01T04:54:23.790Z,11.30
2022-10-01T04:56:53.342Z,11.40
2022-10-01T04:59:23.992Z,11.40
2022-10-01T05:01:53.713Z,11.30
2022-10-01T05:04:23.276Z,11.20
2022-10-01T05:06:53.042Z,11.30
2022-10-01T05:09:22.561Z,11.40
2022-10-01T05:11:52.129Z,11.40
2022-10-01T05:14:21.924Z,11.40
2022-10-01T05:16:51.340Z,11.40
2022-10-01T05:19:25.236Z,11.50
2022-10-01T05:21:54.483Z,11.40
2022-10-01T05:24:24.063Z,11.50
2022-10-01T05:26:56.331Z,11.50
2022-10-01T05:29:25.829Z,11.40
2022-10-01T05:31:55.340Z,11.40
2022-10-01T05:34:24.821Z,11.40
2022-10-01T05:36:55.606Z,11.40
2022-10-01T05:39:25.108Z,11.50
2022-10-01T05:41:55.878Z,11.50
2022-10-01T05:44:27.416Z,11.60
2022-10-01T05:46:57.494Z,11.50
2022-10-01T05:49:26.983Z,11.50
2022-10-01T05:51:56.407Z,11.50
2022-10-01T05:54:25.840Z,11.60
2022-10-01T05:56:55.295Z,11.60
2022-10-01T05:59:28.448Z,11.60
2022-10-01T06:01:56.075Z,11.60
2022-10-01T06:04:25.659Z,11.60
2022-10-01T06:06:56.363Z,11.60
2022-10-01T06:09:25.864Z,11.70
2022-10-01T06:11:56.111Z,11.60
2022-10-01T06:14:25.535Z,11.60
2022-10-01T06:16:55.447Z,11.60
2022-10-01T06:19:25.017Z,11.60
2022-10-01T06:21:54.435Z,11.60
2022-10-01T06:24:23.865Z,11.60
2022-10-01T06:26:53.998Z,11.60
2022-10-01T06:29:24.103Z,11.60
2022-10-01T06:31:53.591Z,11.70
2022-10-01T06:34:23.187Z,11.70
2022-10-01T06:36:52.607Z,11.70
2022-10-01T06:39:22.046Z,11.70
2022-10-01T06:41:51.536Z,11.70
2022-10-01T06:44:23.377Z,11.80
2022-10-01T06:46:54.013Z,12.00
2022-10-01T06:49:23.731Z,12.00
2022-10-01T06:52:11.547Z,12.10
2022-10-01T06:54:40.958Z,12.00
2022-10-01T06:57:10.393Z,12.10
2022-10-01T06:59:39.831Z,12.10
2022-10-01T07:02:13.983Z,12.10
2022-10-01T07:04:43.558Z,12.10
2022-10-01T07:07:13.305Z,12.20
2022-10-01T07:09:42.874Z,12.20
2022-10-01T07:12:12.610Z,12.40
2022-10-01T07:14:42.092Z,12.80
2022-10-01T07:17:11.589Z,13.30
2022-10-01T07:19:41.071Z,13.80
2022-10-01T07:22:11.744Z,14.10
2022-10-01T07:24:41.238Z,14.00
2022-10-01T07:27:10.732Z,14.00
2022-10-01T07:29:41.561Z,14.00
2022-10-01T07:32:11.560Z,14.50
2022-10-01T07:34:41.247Z,14.70
2022-10-01T07:37:11.590Z,15.40
2022-10-01T07:39:40.601Z,15.50
2022-10-01T07:42:09.329Z,15.30
2022-10-01T07:44:38.664Z,15.90
2022-10-01T07:50:12.430Z,16.90
2022-10-01T07:52:44.684Z,16.40
2022-10-01T07:55:10.763Z,15.90
2022-10-01T07:57:40.267Z,15.70
2022-10-01T08:00:10.237Z,15.90
2022-10-01T08:02:40.431Z,15.60
2022-10-01T08:05:20.505Z,15.40
2022-10-01T10:34:41.197Z,20.80
2022-10-01T10:37:19.120Z,22.00
2022-10-01T10:39:50.900Z,22.00
2022-10-01T10:42:22.122Z,21.80
2022-10-01T10:44:55.447Z,21.60
2022-10-01T10:47:26.943Z,21.40
2022-10-01T10:50:02.349Z,21.50
2022-10-01T10:52:33.899Z,21.60
2022-10-01T10:55:06.065Z,21.60
2022-10-01T10:57:36.752Z,21.70
2022-10-01T11:00:16.550Z,21.70
2022-10-01T11:02:57.633Z,22.50
2022-10-01T11:05:32.180Z,22.90
2022-10-01T11:08:07.121Z,23.40
2022-10-01T11:10:56.268Z,23.50
2022-10-01T11:13:53.053Z,23.70
2022-10-01T11:16:50.296Z,24.20
2022-10-01T11:19:45.439Z,24.50
2022-10-01T11:22:43.956Z,24.00
2022-10-01T11:25:19.610Z,24.00
2022-10-01T11:27:56.255Z,24.10
2022-10-01T11:30:34.315Z,24.80
2022-10-01T11:33:15.906Z,24.30
2022-10-01T11:36:04.602Z,24.60
2022-10-01T11:38:54.520Z,24.80
2022-10-01T11:41:30.841Z,24.90
2022-10-01T11:44:18.626Z,24.90
2022-10-01T11:46:55.092Z,24.70
2022-10-01T11:49:28.367Z,24.80
2022-10-01T11:52:09.799Z,25.20
2022-10-01T11:54:42.299Z,24.90
2022-10-01T11:57:32.785Z,24.70
2022-10-01T12:00:11.509Z,24.90
2022-10-01T12:02:53.004Z,24.90
2022-10-01T12:05:25.666Z,25.10
2022-10-01T12:08:08.576Z,24.70
2022-10-01T12:10:42.271Z,25.10
2022-10-01T12:13:24.097Z,24.90
2022-10-01T12:15:59.387Z,23.90
2022-10-01T12:18:54.801Z,24.20
2022-10-01T12:21:30.050Z,24.60
2022-10-01T12:24:08.688Z,24.90
2022-10-01T12:26:52.815Z,24.90
2022-10-01T12:29:31.078Z,25.00
2022-10-01T12:32:13.982Z,24.70
2022-10-01T12:35:04.643Z,24.20
2022-10-01T12:37:46.183Z,25.00
2022-10-01T12:40:29.029Z,25.20
2022-10-01T12:43:11.045Z,25.00
2022-10-01T12:45:58.792Z,24.90
2022-10-01T12:48:52.626Z,25.10
2022-10-01T12:51:41.581Z,25.60
2022-10-01T12:54:47.350Z,25.60
2022-10-01T12:57:37.864Z,25.80
2022-10-01T13:00:25.188Z,25.80
2022-10-01T13:02:57.688Z,25.40
2022-10-01T13:05:36.059Z,25.00
2022-10-01T13:08:17.309Z,24.40
2022-10-01T13:11:13.452Z,24.40
2022-10-01T13:13:43.502Z,24.20
2022-10-01T13:16:27.742Z,24.10
2022-10-01T13:19:24.942Z,24.70
2022-10-01T13:22:00.245Z,25.00
2022-10-01T13:24:32.767Z,24.60
2022-10-01T13:27:08.869Z,24.00
2022-10-01T13:29:41.367Z,23.80
2022-10-01T13:32:30.606Z,23.80
2022-10-01T13:35:03.750Z,23.80
2022-10-01T13:37:39.308Z,23.70
2022-10-01T13:40:26.919Z,23.60
2022-10-01T13:42:59.449Z,23.40
2022-10-01T13:45:31.822Z,23.30
2022-10-01T13:48:20.777Z,23.40
2022-10-01T13:51:05.159Z,23.40
2022-10-01T13:53:43.758Z,23.30
2022-10-01T13:56:16.987Z,23.30
2022-10-01T13:58:47.466Z,23.80
2022-10-01T14:01:24.358Z,24.00
2022-10-01T14:04:31.386Z,23.80
2022-10-01T14:07:06.894Z,23.60
2022-10-01T14:09:45.211Z,23.80
2022-10-01T14:12:41.265Z,24.70
2022-10-01T14:15:36.999Z,24.90
2022-10-01T14:18:09.469Z,24.60
2022-10-01T14:20:45.415Z,24.60
2022-10-01T14:23:16.918Z,24.50
2022-10-01T14:25:55.190Z,24.70
2022-10-01T14:28:30.967Z,25.00
2022-10-01T14:31:06.353Z,25.10
2022-10-01T14:34:07.799Z,24.70
2022-10-01T14:36:51.626Z,24.90
2022-10-01T14:39:29.197Z,24.90
2022-10-01T14:41:59.942Z,24.40
2022-10-01T14:44:44.150Z,24.30
2022-10-01T14:47:25.372Z,24.20
2022-10-01T14:49:56.168Z,24.20
2022-10-01T14:52:31.824Z,23.80
2022-10-01T14:55:06.929Z,24.10
2022-10-01T14:57:45.447Z,24.30
2022-10-01T15:00:20.724Z,24.50
2022-10-01T15:02:53.593Z,24.50
2022-10-01T15:05:29.779Z,24.30
2022-10-01T15:08:00.844Z,24.10
2022-10-01T15:10:30.343Z,24.10
2022-10-01T15:12:59.982Z,24.10
2022-10-01T15:15:35.311Z,24.20
2022-10-01T15:18:06.216Z,24.20
2022-10-01T15:20:36.435Z,24.00
2022-10-01T15:23:07.049Z,23.70
2022-10-01T15:25:37.442Z,23.40
2022-10-01T15:28:15.938Z,23.20
2022-10-01T15:30:46.684Z,23.10
2022-10-01T15:33:30.839Z,22.90
2022-10-01T15:36:09.084Z,22.90
2022-10-01T15:38:39.177Z,23.20
2022-10-01T15:41:30.596Z,23.30
2022-10-01T15:43:43.929Z,23.40
2022-10-01T15:46:19.503Z,23.20
2022-10-01T15:48:50.845Z,23.00
2022-10-01T15:51:23.352Z,22.70
2022-10-01T15:53:53.515Z,22.90
2022-10-01T15:56:25.053Z,22.90
2022-10-01T15:58:57.577Z,23.00
2022-10-01T16:01:30.319Z,23.00
2022-10-01T16:04:05.533Z,22.70
2022-10-01T16:06:43.773Z,22.70
2022-10-01T16:09:22.316Z,22.60
2022-10-01T16:12:00.573Z,22.60
2022-10-01T16:14:40.331Z,22.80
2022-10-01T16:17:23.049Z,23.00
2022-10-01T16:19:58.478Z,23.00
2022-10-01T16:22:33.870Z,22.90
2022-10-01T16:25:07.536Z,23.00
2022-10-01T16:27:49.356Z,23.00
2022-10-01T16:30:25.899Z,22.90
2022-10-01T16:32:56.773Z,22.90
2022-10-01T16:35:33.386Z,22.80
2022-10-01T16:38:05.607Z,22.60
2022-10-01T16:40:40.892Z,22.60
2022-10-01T16:43:13.456Z,22.50
2022-10-01T16:45:45.682Z,22.40
2022-10-01T16:48:24.452Z,22.40
2022-10-01T16:50:55.056Z,22.30
2022-10-01T16:53:25.357Z,22.10
2022-10-01T16:55:56.455Z,22.00
2022-10-01T16:58:27.474Z,21.90
2022-10-01T17:00:56.967Z,21.80
2022-10-01T17:03:27.335Z,21.70
2022-10-01T17:05:56.750Z,21.60
2022-10-01T17:08:26.241Z,21.50
2022-10-01T17:10:59.270Z,21.40
2022-10-01T17:13:32.709Z,21.40
2022-10-01T17:16:04.742Z,21.30
2022-10-01T17:18:34.265Z,21.20
2022-10-01T17:21:05.616Z,21.10
2022-10-01T17:23:36.631Z,21.10
2022-10-01T17:26:10.140Z,21.10
2022-10-01T17:28:40.218Z,20.90
2022-10-01T17:31:12.191Z,20.90
2022-10-01T17:33:40.711Z,20.80
2022-10-01T17:36:11.012Z,20.70
2022-10-01T17:38:40.571Z,20.60
2022-10-01T17:41:10.004Z,20.60
2022-10-01T17:43:42.078Z,20.60
2022-10-01T17:46:11.694Z,20.60
2022-10-01T17:48:41.749Z,20.50
2022-10-01T17:51:14.872Z,20.40
2022-10-01T17:53:44.931Z,20.40
2022-10-01T17:56:18.433Z,20.40
2022-10-01T17:58:47.989Z,20.30
2022-10-01T18:01:21.230Z,20.20
2022-10-01T18:03:56.421Z,20.20
2022-10-01T18:06:29.546Z,20.10
2022-10-01T18:08:59.040Z,20.00
2022-10-01T18:11:30.407Z,20.00
2022-10-01T18:14:00.396Z,20.00
2022-10-01T18:16:29.962Z,19.90
2022-10-01T18:21:33.094Z,19.90
2022-10-01T18:24:04.739Z,19.90
2022-10-01T18:26:34.434Z,19.90
2022-10-01T18:29:04.511Z,19.80
2022-10-01T18:31:36.634Z,19.70
2022-10-01T18:34:09.222Z,19.70
2022-10-01T18:36:44.892Z,19.60
2022-10-01T18:39:26.109Z,19.70
2022-10-01T18:41:55.700Z,19.60
2022-10-01T18:44:25.798Z,19.60
2022-10-01T18:47:17.856Z,19.60
2022-10-01T18:49:57.464Z,19.60
2022-10-01T18:52:35.823Z,19.50
2022-10-01T18:55:24.665Z,19.50
2022-10-01T18:58:07.965Z,19.40
2022-10-01T19:00:43.593Z,19.40
2022-10-01T19:03:42.265Z,19.30
2022-10-01T19:06:23.366Z,19.20
2022-10-01T19:09:12.631Z,19.30
2022-10-01T19:12:06.311Z,19.20
2022-10-01T19:14:44.569Z,19.20
2022-10-01T19:17:17.064Z,19.10
2022-10-01T19:19:58.629Z,19.10
2022-10-01T19:22:53.808Z,19.10
2022-10-01T19:25:37.983Z,19.10
2022-10-01T19:28:10.546Z,19.10
2022-10-01T19:30:40.791Z,19.10
2022-10-01T19:33:12.738Z,19.10
2022-10-01T19:35:51.310Z,19.10
2022-10-01T19:38:26.609Z,19.00
2022-10-01T19:41:02.092Z,19.00
2022-10-01T19:43:51.423Z,18.90
2022-10-01T19:46:24.076Z,18.90
2022-10-01T19:48:59.525Z,18.90
2022-10-01T19:51:46.462Z,19.00
2022-10-01T19:54:22.070Z,18.90
2022-10-01T19:56:54.344Z,18.80
2022-10-01T19:59:24.079Z,18.80
2022-10-01T20:02:00.195Z,18.70
2022-10-01T20:04:34.394Z,18.60
2022-10-01T20:07:07.046Z,18.60
2022-10-01T20:09:48.557Z,18.60
2022-10-01T20:12:54.365Z,18.60
2022-10-01T20:15:42.002Z,18.50
2022-10-01T20:18:17.553Z,18.50
2022-10-01T20:20:59.067Z,18.50
2022-10-01T20:23:41.359Z,18.40
2022-10-01T20:26:33.708Z,18.40
2022-10-01T20:29:29.234Z,18.40
2022-10-01T20:32:23.378Z,18.40
2022-10-01T20:35:02.142Z,18.30
2022-10-01T20:37:50.601Z,18.30
2022-10-01T20:40:29.309Z,18.20
2022-10-01T20:43:13.992Z,18.10
2022-10-01T20:45:46.408Z,18.10
2022-10-01T20:48:21.917Z,18.10
2022-10-01T20:50:54.018Z,18.10
2022-10-01T20:53:41.947Z,18.00
2022-10-01T20:56:13.004Z,18.00
2022-10-01T20:58:51.225Z,18.00
2022-10-01T21:01:26.515Z,17.90
2022-10-01T21:03:59.951Z,17.90
2022-10-01T21:06:45.609Z,17.90
2022-10-01T21:09:40.780Z,17.80
2022-10-01T21:12:34.464Z,17.70
2022-10-01T21:15:05.248Z,17.80
2022-10-01T21:17:56.715Z,17.60
2022-10-01T21:20:41.954Z,17.70
2022-10-01T21:23:20.037Z,17.70
2022-10-01T21:26:07.508Z,17.60
2022-10-01T21:28:56.403Z,17.50
2022-10-01T21:32:04.017Z,17.50
2022-10-01T21:34:48.791Z,17.50
2022-10-01T21:37:24.147Z,17.50
2022-10-01T21:40:14.944Z,17.50
2022-10-01T21:43:18.999Z,17.40
2022-10-01T21:45:54.288Z,17.40
2022-10-01T21:48:32.687Z,17.30
2022-10-01T21:51:19.513Z,17.30
2022-10-01T21:54:00.805Z,17.20
2022-10-01T21:56:34.494Z,17.20
2022-10-01T21:59:07.140Z,17.30
2022-10-01T22:01:54.790Z,17.20
2022-10-01T22:04:36.348Z,17.30
2022-10-01T22:07:30.172Z,17.30
2022-10-01T22:10:24.001Z,17.20
2022-10-01T22:12:56.477Z,17.20
2022-10-01T22:15:39.004Z,17.10
2022-10-01T22:18:14.083Z,17.10
2022-10-01T22:20:46.073Z,17.00
2022-10-01T22:23:18.493Z,17.00
2022-10-01T22:25:53.924Z,17.00
2022-10-01T22:28:26.556Z,17.00
2022-10-01T22:30:58.445Z,16.90
2022-10-01T22:33:40.021Z,16.70
2022-10-01T22:36:18.498Z,16.20
2022-10-01T22:38:54.325Z,16.50
2022-10-01T22:41:45.078Z,16.60
2022-10-01T22:44:17.764Z,16.70
2022-10-01T22:46:58.905Z,16.70
2022-10-01T22:50:06.157Z,16.70
2022-10-01T22:52:55.385Z,16.70
2022-10-01T22:55:33.859Z,16.60
2022-10-01T22:58:21.633Z,16.60
2022-10-01T23:01:03.123Z,16.60
2022-10-01T23:03:38.488Z,16.60
2022-10-01T23:06:15.017Z,16.60
2022-10-01T23:08:53.635Z,16.60
2022-10-01T23:11:35.135Z,16.60
2022-10-01T23:14:27.361Z,16.60
2022-10-01T23:17:11.897Z,16.50
2022-10-01T23:19:50.168Z,16.40
2022-10-01T23:22:54.725Z,16.40
2022-10-01T23:25:41.613Z,16.50
2022-10-01T23:28:32.714Z,16.50
2022-10-01T23:31:13.803Z,16.50
2022-10-01T23:34:14.891Z,16.50
2022-10-01T23:36:50.305Z,16.50
2022-10-01T23:39:48.653Z,16.50
2022-10-01T23:42:27.658Z,16.40
2022-10-01T23:45:22.833Z,16.40
2022-10-01T23:47:55.330Z,16.30
2022-10-01T23:50:33.755Z,16.30
2022-10-01T23:53:06.257Z,16.30
2022-10-01T23:55:57.111Z,16.20
2022-10-01T23:58:29.245Z,16.20
